Terminal Aerodrome Forecast
Issued by NWS Charleston, SC

Home | Current Version | Previous Version | Text Only | Print | Product List | Glossary On
Versions: 1 2 3 4 5 6 7 8 9 10 11 12 13
000
FTUS42 KCHS 311738
TAFSAV
TAF
KSAV 311738Z 3118/0118 10006KT P6SM SCT250
     FM010000 VRB03KT P6SM BKN250
     FM011600 15008KT P6SM FEW050 BKN200=

USA.gov is the U.S. government's official web portal to all federal, state and local government web resources and services.